Portada
METAR-TAF:

METAR-TAF

Aeroports :

Oskemen, Kazakhstan

latitud: 50-02-10N, longitud: 082-29-39E, altitud: 286 m

Observació

L'informe es va fer fa 15 minuts, a les 09:00 UTC
Vent 14 kt del Sud/Sud-Est
Temperatura -3°C
Humitat 63%
Pressió 1034 hPa
Visibilitat 10 km o més
Núvols disperses a una alçada de 5300 ft
Cel cobert a una alçada de 11600 ft

METAR: UASK 120900Z 15007MPS 9999 SCT053 OVC116 M03/M09 Q1034 R12/810150 NOSIG RMK QFE750/1000

Hora: 15:15 (09:15 UTC)

Pronòstic

L'informe es va fer fa 1 hora i 14 minuts, a les 08:01 UTC
Pronòstic vàlid del 12 a les 09 UTC al 12 a les 18 UTC
Vent 16 kt del Sud-Est
Visibilitat 10 km o més
Núvols disperses a una alçada de 5000 ft
Cel ennuvolat a una alçada de 10000 ft
Temporalment
l' 12 a les 09 UTC al 12 a les 15 UTC
Vent 17 kt del Sud/Sud-Est amb ràfegues de 27 kt

TAF: UASK 120801Z 1209/1218 14008MPS 9999 SCT050 BKN100 TEMPO 1209/1215 15009G14MPS

Observacions i pronòstics meteorològics de més de 4000 aeroports (METAR i TAF).

Les estacions disponibles són els punts grocs i vermells al mapa.

Posi el ratolí al punt desitjat per veure el nom de l'estació.

Feu clic per veure les observacions i els pronòstics meteorològics.

Per canviar el mapa: feu clic els botons verds amb una creu de color negre per apropar; al botó verd amb un guió per allunyar la imatge; o en les fletxes verdes per a mapes adjacents.


METAR-TAF: